Time;durP1;ratioP1;P1;durP2;ratioP2;P2;SDS_P1;SDS_P2;PMS_P1;PMS_P2;Temp;Humidity;BMP_temperature;BMP_pressure;BME280_temperature;BME280_humidity;BME280_pressure;Samples;Min_cycle;Max_cycle;Signal;HPM_P1;HPM_P2
2021/12/14 00:02:13;;;;;;;36.77;23.13;;;;;;;7.24;100.00;100244.28;5111897;28;20199;-86
2021/12/14 00:04:41;;;;;;;40.73;22.93;;;;;;;7.22;100.00;100261.03;5115752;28;20199;-86
2021/12/14 00:07:14;;;;;;;37.13;23.23;;;;;;;7.20;100.00;100247.03;5107752;28;20203;-85
2021/12/14 00:09:44;;;;;;;38.53;24.87;;;;;;;7.15;100.00;100247.22;5111087;28;20195;-86
2021/12/14 00:12:30;;;;;;;36.63;22.57;;;;;;;7.12;100.00;100250.78;5114543;28;20228;-87
2021/12/14 00:15:04;;;;;;;36.50;22.83;;;;;;;7.21;100.00;100249.63;5111653;28;20193;-84
2021/12/14 00:17:51;;;;;;;43.97;28.20;;;;;;;7.11;100.00;100245.56;5112940;28;20202;-86
2021/12/14 00:20:23;;;;;;;37.93;25.83;;;;;;;7.18;100.00;100253.22;5111422;28;20199;-83
2021/12/14 00:25:42;;;;;;;37.93;24.67;;;;;;;7.04;100.00;100254.56;5114434;28;20215;-86
2021/12/14 00:28:14;;;;;;;49.67;33.97;;;;;;;7.14;100.00;100242.81;5110398;28;20453;-86
2021/12/14 00:30:45;;;;;;;36.73;23.90;;;;;;;7.15;100.00;100232.25;5108623;28;20230;-86
2021/12/14 00:33:20;;;;;;;33.67;22.57;;;;;;;7.02;100.00;100235.31;5109351;28;20215;-86
2021/12/14 00:35:50;;;;;;;33.07;22.57;;;;;;;7.06;100.00;100240.47;5111719;28;20191;-86
2021/12/14 00:38:22;;;;;;;33.40;21.63;;;;;;;7.08;100.00;100232.50;5110846;28;20202;-86
2021/12/14 00:40:54;;;;;;;32.57;20.50;;;;;;;7.11;100.00;100233.25;5111421;28;20195;-86
2021/12/14 00:43:23;;;;;;;31.00;21.97;;;;;;;7.15;100.00;100240.16;5111917;28;20203;-86
2021/12/14 00:45:53;;;;;;;31.40;21.20;;;;;;;7.11;100.00;100233.25;5107526;28;20214;-86
2021/12/14 00:48:23;;;;;;;29.27;20.03;;;;;;;7.09;100.00;100235.09;5106971;28;20749;-87
2021/12/14 00:50:55;;;;;;;29.87;19.53;;;;;;;7.14;100.00;100225.28;5114734;28;20198;-86
2021/12/14 00:53:24;;;;;;;29.83;21.03;;;;;;;7.15;100.00;100232.25;5114833;28;20187;-86
2021/12/14 00:55:59;;;;;;;30.67;19.97;;;;;;;7.13;100.00;100235.84;5113699;28;20672;-86
2021/12/14 00:58:28;;;;;;;30.83;20.60;;;;;;;7.10;100.00;100239.44;5112456;28;20187;-86
2021/12/14 01:01:00;;;;;;;29.60;20.57;;;;;;;7.04;100.00;100239.63;5110325;28;20203;-86
2021/12/14 01:03:33;;;;;;;27.77;19.93;;;;;;;7.13;100.00;100244.59;5114775;28;20248;-86
2021/12/14 01:06:02;;;;;;;27.10;19.40;;;;;;;7.24;100.00;100246.91;5109397;28;20218;-86
2021/12/14 01:08:38;;;;;;;31.37;20.13;;;;;;;7.20;100.00;100255.81;5114932;28;20191;-86
2021/12/14 01:11:13;;;;;;;26.90;19.47;;;;;;;7.04;100.00;100254.56;5108635;28;20660;-86
2021/12/14 01:13:53;;;;;;;28.83;20.17;;;;;;;7.08;100.00;100266.75;5111468;28;20773;-86
2021/12/14 01:16:34;;;;;;;29.07;19.77;;;;;;;6.96;100.00;100265.38;5110011;28;20199;-86
2021/12/14 01:19:17;;;;;;;24.17;18.57;;;;;;;7.11;100.00;100267.50;5109928;28;20209;-86
2021/12/14 01:25:07;;;;;;;26.10;18.57;;;;;;;7.01;100.00;100255.53;5012700;28;20251;-86
2021/12/14 01:27:44;;;;;;;26.50;18.50;;;;;;;7.07;100.00;100249.22;5028079;28;20230;-86
2021/12/14 01:30:22;;;;;;;27.47;18.40;;;;;;;7.10;100.00;100252.63;5027553;28;20249;-86
2021/12/14 01:32:52;;;;;;;26.13;18.20;;;;;;;7.18;100.00;100249.72;5029216;28;20193;-86
2021/12/14 01:35:29;;;;;;;25.20;17.73;;;;;;;7.23;100.00;100244.31;5032090;28;20193;-87
2021/12/14 01:38:02;;;;;;;26.23;19.13;;;;;;;7.17;100.00;100250.66;5019821;28;20705;-86
2021/12/14 01:40:54;;;;;;;29.90;18.83;;;;;;;7.22;100.00;100240.81;5091587;28;20698;-85
2021/12/14 01:43:28;;;;;;;24.37;17.73;;;;;;;7.22;100.00;100250.47;5114002;28;20191;-84
2021/12/14 01:45:58;;;;;;;26.87;16.73;;;;;;;7.16;100.00;100251.56;5110603;28;20210;-86
2021/12/14 01:48:27;;;;;;;26.03;17.90;;;;;;;7.02;100.00;100240.59;5109395;28;20664;-85
2021/12/14 01:51:02;;;;;;;25.33;17.37;;;;;;;7.21;100.00;100232.94;5105577;28;20191;-85
2021/12/14 01:53:31;;;;;;;25.17;17.73;;;;;;;7.02;100.00;100244.09;5108689;28;20191;-85
2021/12/14 01:56:05;;;;;;;24.53;17.67;;;;;;;7.06;100.00;100248.38;5110157;28;20191;-86
2021/12/14 01:58:38;;;;;;;27.73;17.77;;;;;;;7.18;100.00;100247.09;5114138;28;20202;-85
2021/12/14 02:01:14;;;;;;;28.93;18.33;;;;;;;7.21;100.00;100246.13;5110047;28;20209;-86
2021/12/14 02:03:48;;;;;;;24.77;17.07;;;;;;;7.16;100.00;100251.56;5114154;28;20240;-85
2021/12/14 02:06:23;;;;;;;21.90;15.80;;;;;;;7.19;100.00;100248.81;5103946;28;20223;-85
2021/12/14 02:08:58;;;;;;;23.40;16.10;;;;;;;7.31;100.00;100248.41;5024125;28;20201;-85
2021/12/14 02:11:31;;;;;;;22.43;15.57;;;;;;;7.28;100.00;100242.38;5021932;28;20235;-85
2021/12/14 02:14:01;;;;;;;21.77;15.43;;;;;;;7.28;100.00;100245.88;5028456;28;20288;-85
2021/12/14 02:16:29;;;;;;;22.27;16.13;;;;;;;7.24;100.00;100235.47;5031529;28;20196;-85
2021/12/14 02:19:03;;;;;;;21.93;15.80;;;;;;;7.24;100.00;100230.22;5028917;28;20216;-85
2021/12/14 02:21:33;;;;;;;23.23;16.53;;;;;;;7.29;100.00;100226.53;5026255;28;20193;-84
2021/12/14 02:24:04;;;;;;;22.53;16.43;;;;;;;7.29;100.00;100226.53;5031329;28;20236;-85
2021/12/14 02:26:36;;;;;;;20.93;15.67;;;;;;;7.12;100.00;100219.16;5049833;28;20229;-86
2021/12/14 02:29:09;;;;;;;21.87;15.77;;;;;;;7.09;100.00;100221.91;5105941;28;20194;-84
2021/12/14 02:31:41;;;;;;;20.53;14.60;;;;;;;7.21;100.00;100209.25;5107186;28;20233;-84
2021/12/14 02:34:10;;;;;;;20.90;15.20;;;;;;;7.14;100.00;100216.47;5113803;28;20198;-85
2021/12/14 02:36:42;;;;;;;22.93;14.70;;;;;;;7.26;100.00;100209.97;5109141;28;20195;-85
2021/12/14 02:39:35;;;;;;;20.73;15.23;;;;;;;7.23;100.00;100200.38;5110704;28;20194;-84
2021/12/14 02:42:06;;;;;;;22.43;15.97;;;;;;;7.21;100.00;100196.94;5103285;28;20207;-85
2021/12/14 02:44:34;;;;;;;20.43;15.17;;;;;;;7.20;100.00;100191.72;5104840;28;20206;-85
2021/12/14 02:47:09;;;;;;;22.00;15.87;;;;;;;7.20;100.00;100200.47;5105756;28;20245;-85
2021/12/14 02:49:39;;;;;;;22.27;16.27;;;;;;;7.25;100.00;100195.94;5102332;28;20195;-85
2021/12/14 02:52:12;;;;;;;21.20;15.77;;;;;;;7.17;100.00;100182.16;5108181;28;20191;-85
2021/12/14 02:54:44;;;;;;;24.33;16.63;;;;;;;7.12;100.00;100186.69;5117473;28;20202;-85
2021/12/14 02:57:16;;;;;;;22.40;16.33;;;;;;;7.18;100.00;100186.50;5111135;28;20195;-85
2021/12/14 02:59:46;;;;;;;23.47;17.47;;;;;;;7.08;100.00;100188.59;5054592;28;20243;-85
2021/12/14 03:02:17;;;;;;;24.37;17.07;;;;;;;7.14;100.00;100192.75;5049891;28;20201;-85
2021/12/14 03:04:49;;;;;;;25.17;17.60;;;;;;;7.06;100.00;100193.03;5054480;28;20359;-84
2021/12/14 03:07:24;;;;;;;23.87;17.03;;;;;;;7.12;100.00;100187.56;5054461;28;20221;-85
2021/12/14 03:09:59;;;;;;;23.83;17.23;;;;;;;7.12;100.00;100184.91;5045498;28;20247;-85
2021/12/14 03:12:33;;;;;;;23.80;17.30;;;;;;;7.27;100.00;100182.69;5048871;28;20200;-85
2021/12/14 03:15:08;;;;;;;25.90;18.10;;;;;;;7.24;100.00;100178.41;5052163;28;20243;-85
2021/12/14 03:17:38;;;;;;;25.30;18.47;;;;;;;7.20;100.00;100181.19;5070944;28;20198;-85
2021/12/14 03:20:11;;;;;;;25.63;16.97;;;;;;;7.21;100.00;100167.94;5105629;28;20195;-85
2021/12/14 03:22:46;;;;;;;27.63;18.03;;;;;;;7.15;100.00;100166.41;5108831;28;20199;-84
2021/12/14 03:25:18;;;;;;;26.33;18.17;;;;;;;7.24;100.00;100167.88;5111924;28;20198;-85
2021/12/14 03:27:51;;;;;;;25.77;18.37;;;;;;;7.28;100.00;100172.09;5111473;28;20215;-85
2021/12/14 03:30:30;;;;;;;27.00;18.30;;;;;;;7.21;100.00;100173.22;5114165;28;20225;-84
2021/12/14 03:33:04;;;;;;;26.20;19.07;;;;;;;7.08;100.00;100162.25;5107937;28;20248;-85
2021/12/14 03:35:40;;;;;;;29.03;18.93;;;;;;;7.21;100.00;100169.72;5104224;28;20311;-84
2021/12/14 03:38:16;;;;;;;25.27;18.30;;;;;;;7.28;100.00;100169.47;5111132;28;20202;-85
2021/12/14 03:40:45;;;;;;;26.47;18.37;;;;;;;7.14;100.00;100167.31;5108813;28;20194;-85
2021/12/14 03:43:14;;;;;;;30.07;19.53;;;;;;;7.11;100.00;100150.72;5112183;28;20327;-85
2021/12/14 03:45:43;;;;;;;29.13;19.13;;;;;;;7.10;100.00;100151.66;5116547;28;20213;-85
2021/12/14 03:48:13;;;;;;;25.47;18.57;;;;;;;7.17;100.00;100158.44;5116884;28;20504;-85
2021/12/14 03:50:43;;;;;;;28.67;19.27;;;;;;;7.22;100.00;100153.00;5116412;28;20183;-85
2021/12/14 03:53:14;;;;;;;25.77;19.30;;;;;;;7.19;100.00;100151.34;5116174;28;20206;-85
2021/12/14 03:55:46;;;;;;;26.33;18.63;;;;;;;7.16;100.00;100144.41;5076986;28;20191;-85
2021/12/14 03:58:19;;;;;;;32.13;20.00;;;;;;;7.14;100.00;100134.81;5107640;28;20222;-85
2021/12/14 04:00:50;;;;;;;28.87;20.57;;;;;;;7.11;100.00;100116.47;5108808;28;20217;-84
2021/12/14 04:03:21;;;;;;;28.97;20.07;;;;;;;7.11;100.00;100114.69;5112032;28;20199;-85
2021/12/14 04:05:50;;;;;;;27.10;19.50;;;;;;;7.20;100.00;100125.84;5112122;28;20244;-85
2021/12/14 04:08:24;;;;;;;30.17;20.13;;;;;;;7.11;100.00;100117.34;5112915;28;20214;-85
2021/12/14 04:10:56;;;;;;;28.63;20.10;;;;;;;7.02;100.00;100128.19;5025916;28;20194;-85
2021/12/14 04:13:27;;;;;;;29.57;19.93;;;;;;;7.07;100.00;100114.88;5033188;28;20198;-85
2021/12/14 04:15:57;;;;;;;26.60;18.97;;;;;;;7.11;100.00;100114.69;5030847;28;20660;-85
2021/12/14 04:18:27;;;;;;;31.03;20.67;;;;;;;7.24;100.00;100109.88;5029444;28;20259;-85
2021/12/14 04:20:56;;;;;;;28.57;20.30;;;;;;;7.20;100.00;100102.13;5026659;28;20213;-85
2021/12/14 04:23:28;;;;;;;30.43;20.63;;;;;;;7.12;100.00;100097.13;5027869;28;20197;-85
2021/12/14 04:26:02;;;;;;;30.13;20.77;;;;;;;7.10;100.00;100084.00;5025438;28;20285;-84
2021/12/14 04:28:36;;;;;;;28.43;19.67;;;;;;;7.16;100.00;100083.81;5051347;28;20219;-85
2021/12/14 04:31:06;;;;;;;28.97;20.03;;;;;;;7.15;100.00;100084.72;5107363;28;20222;-85
2021/12/14 04:33:40;;;;;;;28.93;19.77;;;;;;;7.20;100.00;100095.09;5115558;28;20685;-85
2021/12/14 04:36:11;;;;;;;29.77;20.37;;;;;;;7.15;100.00;100097.03;5108891;28;20194;-85
2021/12/14 04:38:50;;;;;;;29.70;20.00;;;;;;;7.24;100.00;100101.09;5112137;28;20195;-85
2021/12/14 04:52:31;;;;;;;34.20;21.60;;;;;;;6.98;100.00;100091.50;5115035;28;20195;-86
2021/12/14 04:55:06;;;;;;;33.10;22.13;;;;;;;6.95;100.00;100089.81;5110378;28;20338;-85
2021/12/14 04:57:38;;;;;;;34.87;23.23;;;;;;;6.95;100.00;100092.47;5107251;28;20212;-85
2021/12/14 05:00:19;;;;;;;32.03;21.03;;;;;;;6.97;100.00;100111.69;5112266;28;20183;-86
2021/12/14 05:02:48;;;;;;;30.87;21.17;;;;;;;6.93;100.00;100114.47;5108351;28;20202;-85
2021/12/14 05:05:20;;;;;;;34.13;22.33;;;;;;;7.01;100.00;100122.97;5105230;28;20236;-85
2021/12/14 05:09:20;;;;;;;39.10;22.27;;;;;;;6.99;100.00;100133.56;5114463;28;20241;-85
2021/12/14 05:10:58;;;;;;;34.00;21.87;;;;;;;7.04;100.00;100128.13;5110073;28;20202;-85
2021/12/14 05:13:32;;;;;;;40.10;31.90;;;;;;;7.05;100.00;100122.84;5108625;28;20212;-85
2021/12/14 05:16:00;;;;;;;36.30;24.80;;;;;;;7.19;100.00;100117.09;5114466;28;20205;-85
2021/12/14 05:18:29;;;;;;;33.27;21.90;;;;;;;7.20;100.00;100104.75;5095808;28;20190;-85
2021/12/14 05:20:59;;;;;;;36.50;23.37;;;;;;;7.17;100.00;100106.59;5106583;28;20203;-85
2021/12/14 05:23:31;;;;;;;33.50;21.80;;;;;;;7.21;100.00;100115.25;5114258;28;20233;-85
2021/12/14 05:26:03;;;;;;;33.53;22.30;;;;;;;7.24;100.00;100102.00;5105409;28;20690;-85
2021/12/14 05:28:33;;;;;;;35.03;23.30;;;;;;;7.29;100.00;100107.09;5109492;28;20223;-85
2021/12/14 05:31:03;;;;;;;34.93;23.57;;;;;;;7.29;100.00;100107.09;5102242;28;20234;-85
2021/12/14 05:33:38;;;;;;;38.07;23.50;;;;;;;7.40;100.00;100100.50;5105808;28;20203;-85
2021/12/14 05:36:09;;;;;;;37.43;23.33;;;;;;;7.43;100.00;100103.06;5107486;28;20224;-85
2021/12/14 05:38:47;;;;;;;40.07;23.80;;;;;;;7.33;100.00;100106.03;5103350;28;20203;-86
2021/12/14 05:44:11;;;;;;;39.13;25.23;;;;;;;7.27;100.00;100133.50;5110989;28;20255;-84
2021/12/14 05:46:40;;;;;;;36.57;24.00;;;;;;;7.25;100.00;100127.41;5107409;28;20197;-85
2021/12/14 05:49:11;;;;;;;34.00;22.83;;;;;;;7.46;100.00;100138.97;5109878;28;20219;-85
2021/12/14 05:51:40;;;;;;;40.70;25.57;;;;;;;7.10;100.00;100141.97;5113881;28;20187;-84
2021/12/14 05:54:08;;;;;;;44.23;28.33;;;;;;;7.01;100.00;100142.28;5111243;28;20190;-85
2021/12/14 05:56:38;;;;;;;44.23;27.93;;;;;;;7.22;100.00;100131.91;5108651;28;20199;-85
2021/12/14 05:59:06;;;;;;;43.70;27.27;;;;;;;7.16;100.00;100127.72;5107299;28;20191;-85
2021/12/14 06:01:35;;;;;;;49.27;28.37;;;;;;;7.26;100.00;100117.75;5111190;28;20206;-85
2021/12/14 06:04:10;;;;;;;50.17;29.00;;;;;;;7.22;100.00;100127.50;5108534;28;20194;-84
2021/12/14 06:06:41;;;;;;;54.03;32.00;;;;;;;7.10;100.00;100123.53;5114028;28;20235;-85
2021/12/14 06:09:13;;;;;;;50.77;30.27;;;;;;;7.28;100.00;100132.56;5107015;28;20215;-85
2021/12/14 06:11:44;;;;;;;55.47;31.73;;;;;;;7.35;100.00;100130.59;5104049;28;20191;-84
2021/12/14 06:14:16;;;;;;;61.57;33.70;;;;;;;7.17;100.00;100147.91;5104223;28;20210;-85
2021/12/14 06:16:47;;;;;;;56.23;31.80;;;;;;;7.07;100.00;100146.50;5111121;28;20191;-85
2021/12/14 06:19:24;;;;;;;55.53;30.23;;;;;;;7.23;100.00;100131.84;5105527;28;20198;-84
2021/12/14 06:21:55;;;;;;;56.80;31.67;;;;;;;7.22;100.00;100138.03;5101474;28;20198;-84
2021/12/14 06:24:27;;;;;;;55.80;33.13;;;;;;;7.13;100.00;100152.38;5109307;28;20190;-84
2021/12/14 06:27:01;;;;;;;62.50;33.27;;;;;;;6.96;100.00;100143.34;5110100;28;20191;-85
2021/12/14 06:29:32;;;;;;;63.07;33.60;;;;;;;7.28;100.00;100142.25;5117323;28;20214;-85
2021/12/14 06:32:07;;;;;;;59.27;33.13;;;;;;;7.28;100.00;100150.16;5104471;28;20227;-85
2021/12/14 06:34:35;;;;;;;63.90;32.93;;;;;;;7.28;100.00;100145.75;5114393;28;20263;-85
2021/12/14 06:37:55;;;;;;;58.20;31.47;;;;;;;7.25;100.00;100142.38;5108117;28;20191;-85
2021/12/14 06:40:27;;;;;;;60.07;31.80;;;;;;;7.27;100.00;100140.53;5117282;28;20195;-85
2021/12/14 06:43:00;;;;;;;58.67;32.17;;;;;;;7.32;100.00;100149.13;5113132;28;20199;-85
2021/12/14 06:45:33;;;;;;;60.30;32.47;;;;;;;7.30;100.00;100157.09;5113816;28;20188;-85
2021/12/14 06:48:06;;;;;;;58.47;31.73;;;;;;;7.26;100.00;100152.00;5114809;28;20198;-85
2021/12/14 06:50:40;;;;;;;61.07;31.90;;;;;;;7.37;100.00;100147.22;5112405;28;20220;-85
2021/12/14 06:53:16;;;;;;;56.80;30.80;;;;;;;7.38;100.00;100149.78;5117902;28;20187;-85
2021/12/14 06:55:47;;;;;;;58.03;31.67;;;;;;;7.36;100.00;100156.88;5105291;28;20215;-85
2021/12/14 06:58:20;;;;;;;54.10;30.43;;;;;;;7.42;100.00;100166.34;5108038;28;20202;-85
2021/12/14 07:00:51;;;;;;;59.77;32.87;;;;;;;7.50;100.00;100159.03;5108289;28;20203;-86
2021/12/14 07:03:20;;;;;;;55.50;31.10;;;;;;;7.46;100.00;100152.16;5112414;28;20190;-85
2021/12/14 07:05:51;;;;;;;57.50;30.73;;;;;;;7.47;100.00;100148.59;5117386;28;20240;-85
2021/12/14 07:08:26;;;;;;;52.40;29.50;;;;;;;7.39;100.00;100142.72;5117062;28;20198;-85
2021/12/14 07:10:56;;;;;;;52.70;29.60;;;;;;;7.38;100.00;100143.66;5105508;28;20286;-86
2021/12/14 07:13:34;;;;;;;55.60;30.43;;;;;;;7.27;100.00;100144.03;5112856;28;20191;-85
2021/12/14 07:16:03;;;;;;;55.60;30.57;;;;;;;7.35;100.00;100149.91;5114863;28;20202;-85
2021/12/14 07:18:34;;;;;;;59.77;31.57;;;;;;;7.41;100.00;100159.34;5117557;28;20224;-84
2021/12/14 07:21:03;;;;;;;53.43;29.80;;;;;;;7.34;100.00;100150.81;5111576;28;20260;-85
2021/12/14 07:23:34;;;;;;;57.53;29.90;;;;;;;7.31;100.00;100150.91;5111374;28;20274;-85
2021/12/14 07:26:06;;;;;;;51.30;28.97;;;;;;;7.36;100.00;100151.63;5106493;28;20207;-85
2021/12/14 07:28:38;;;;;;;53.17;30.83;;;;;;;7.43;100.00;100149.59;5112768;28;20186;-85
2021/12/14 07:31:14;;;;;;;55.03;31.80;;;;;;;7.43;100.00;100154.88;5116561;28;20218;-85
2021/12/14 07:33:48;;;;;;;58.37;32.03;;;;;;;7.38;100.00;100141.03;5112370;28;20641;-85
2021/12/14 07:36:24;;;;;;;59.03;31.80;;;;;;;7.44;100.00;100146.94;5104662;28;20202;-85
2021/12/14 07:38:55;;;;;;;61.07;31.90;;;;;;;7.46;100.00;100145.09;5116465;28;20247;-84
2021/12/14 07:41:28;;;;;;;61.13;32.90;;;;;;;7.36;100.00;100142.84;5107263;28;20199;-86
2021/12/14 07:44:02;;;;;;;61.50;31.70;;;;;;;7.39;100.00;100143.59;5116467;28;20194;-85
2021/12/14 07:46:39;;;;;;;55.73;30.77;;;;;;;7.28;100.00;100135.22;5111549;28;20641;-84
2021/12/14 07:49:12;;;;;;;55.13;31.07;;;;;;;7.20;100.00;100145.16;5013889;28;20218;-85
2021/12/14 07:51:42;;;;;;;52.37;30.37;;;;;;;7.26;100.00;100142.31;5001641;28;20850;-85
2021/12/14 07:54:13;;;;;;;53.37;29.57;;;;;;;7.36;100.00;100154.25;5013886;28;20305;-85
2021/12/14 07:56:43;;;;;;;54.00;29.80;;;;;;;7.35;100.00;100154.31;5010140;28;20203;-85
2021/12/14 07:59:23;;;;;;;52.77;28.70;;;;;;;7.44;100.00;100146.09;5011417;28;20198;-84
2021/12/14 08:02:08;;;;;;;50.00;29.00;;;;;;;7.21;100.00;100161.81;5007409;28;20194;-85
2021/12/14 08:04:39;;;;;;;52.33;29.07;;;;;;;7.04;100.00;100165.00;5008359;28;20210;-84
2021/12/14 08:07:08;;;;;;;52.30;28.23;;;;;;;7.04;100.00;100170.28;5049881;28;20207;-86
2021/12/14 08:09:47;;;;;;;48.70;29.17;;;;;;;7.14;100.00;100172.56;5112946;28;20215;-85
2021/12/14 08:12:31;;;;;;;57.13;31.87;;;;;;;7.03;100.00;100185.22;5114174;28;20636;-86
2021/12/14 08:15:11;;;;;;;57.13;31.37;;;;;;;7.06;100.00;100189.56;5115961;28;20671;-85
2021/12/14 08:17:41;;;;;;;88.47;49.17;;;;;;;6.88;100.00;100202.41;5111083;28;20195;-85
2021/12/14 08:20:12;;;;;;;399.97;185.60;;;;;;;6.94;100.00;100211.84;5108848;28;20219;-86
2021/12/14 08:22:55;;;;;;;417.47;232.03;;;;;;;6.95;100.00;100203.06;5110643;28;20202;-85
2021/12/14 08:25:29;;;;;;;136.57;67.80;;;;;;;7.19;100.00;100211.94;5111487;28;20252;-85
2021/12/14 08:28:02;;;;;;;64.93;38.17;;;;;;;7.20;100.00;100216.28;5109219;28;20195;-85
2021/12/14 08:30:34;;;;;;;63.83;36.07;;;;;;;7.25;100.00;100222.28;5109575;28;20226;-86
2021/12/14 08:33:04;;;;;;;56.87;30.70;;;;;;;7.29;100.00;100228.28;5077694;28;20195;-86
2021/12/14 08:35:32;;;;;;;84.10;45.67;;;;;;;7.21;100.00;100218.00;5110534;28;20203;-85
2021/12/14 08:38:03;;;;;;;112.00;71.43;;;;;;;7.13;100.00;100215.63;5110048;28;20187;-86
2021/12/14 08:40:37;;;;;;;83.70;61.37;;;;;;;7.05;100.00;100215.03;5110857;28;20195;-85
2021/12/14 08:43:12;;;;;;;61.07;33.00;;;;;;;7.08;100.00;100211.44;5110883;28;20666;-86
2021/12/14 08:45:48;;;;;;;62.77;33.43;;;;;;;7.17;100.00;100222.53;5112894;28;20189;-86
2021/12/14 08:48:20;;;;;;;57.20;31.27;;;;;;;7.25;100.00;100211.75;5105644;28;20236;-85
2021/12/14 08:50:54;;;;;;;57.23;30.97;;;;;;;7.33;100.00;100212.31;5107009;28;20215;-84
2021/12/14 08:53:24;;;;;;;61.73;33.00;;;;;;;7.43;100.00;100218.13;5112205;28;20191;-86
2021/12/14 08:55:56;;;;;;;60.20;32.40;;;;;;;7.48;100.00;100218.84;5107001;28;20202;-86
2021/12/14 08:58:27;;;;;;;58.43;31.67;;;;;;;7.61;100.00;100224.56;5108698;28;20198;-86
2021/12/14 09:01:00;;;;;;;58.60;34.27;;;;;;;7.54;100.00;100233.63;5063745;28;20202;-86
2021/12/14 09:03:33;;;;;;;58.03;32.70;;;;;;;7.56;100.00;100243.19;5114879;28;20191;-86
2021/12/14 09:06:04;;;;;;;60.80;32.73;;;;;;;7.50;100.00;100245.16;5114892;28;20252;-87
2021/12/14 09:08:35;;;;;;;57.33;31.13;;;;;;;7.58;100.00;100243.13;5109005;28;20199;-86
2021/12/14 09:11:05;;;;;;;55.00;31.37;;;;;;;7.61;100.00;100250.91;5113549;28;20218;-86
2021/12/14 09:13:34;;;;;;;58.40;30.27;;;;;;;7.68;100.00;100252.44;5110589;28;20191;-86
2021/12/14 09:16:10;;;;;;;54.03;30.33;;;;;;;7.72;100.00;100247.03;5114509;28;20641;-86
2021/12/14 09:18:42;;;;;;;55.67;31.33;;;;;;;7.73;100.00;100255.78;5109233;28;20202;-87
2021/12/14 09:21:15;;;;;;;58.93;34.30;;;;;;;7.75;100.00;100244.28;5111846;28;20273;-86
2021/12/14 09:23:46;;;;;;;58.43;32.17;;;;;;;7.79;100.00;100250.28;5111479;28;20203;-86
2021/12/14 09:26:19;;;;;;;57.43;32.43;;;;;;;7.69;100.00;100243.63;5112400;28;20191;-86
2021/12/14 09:28:52;;;;;;;50.60;29.33;;;;;;;7.88;100.00;100239.41;5116632;28;20194;-86
2021/12/14 09:31:25;;;;;;;55.30;31.57;;;;;;;7.90;100.00;100239.34;5108087;28;20218;-86
2021/12/14 09:33:59;;;;;;;56.97;32.07;;;;;;;8.00;100.00;100248.66;5110806;28;20203;-85
2021/12/14 09:36:29;;;;;;;66.60;35.00;;;;;;;7.88;100.00;100244.69;5114221;28;20650;-85
2021/12/14 09:39:08;;;;;;;56.00;33.27;;;;;;;7.92;100.00;100251.59;5118172;28;20191;-86
2021/12/14 09:41:37;;;;;;;51.37;29.23;;;;;;;7.68;100.00;100250.66;5114004;28;20206;-86
2021/12/14 09:44:08;;;;;;;45.17;28.23;;;;;;;7.73;100.00;100243.47;5106151;28;20190;-87
2021/12/14 09:46:39;;;;;;;49.37;27.63;;;;;;;7.65;100.00;100244.66;5109551;28;20648;-85
2021/12/14 09:49:10;;;;;;;46.03;25.93;;;;;;;7.61;100.00;100245.66;5108069;28;20221;-86
2021/12/14 09:51:42;;;;;;;40.07;25.20;;;;;;;7.82;100.00;100254.63;5105702;28;20267;-87
2021/12/14 09:54:14;;;;;;;58.63;41.77;;;;;;;7.65;100.00;100247.28;5066268;28;20206;-86
2021/12/14 09:56:48;;;;;;;48.00;28.80;;;;;;;7.67;100.00;100241.03;5109561;28;20198;-87
2021/12/14 09:59:16;;;;;;;44.63;25.73;;;;;;;7.77;100.00;100238.06;5108940;28;20284;-86
2021/12/14 10:01:51;;;;;;;38.17;21.90;;;;;;;7.75;100.00;100238.13;5111121;28;20191;-86
2021/12/14 10:04:23;;;;;;;39.30;23.87;;;;;;;7.57;100.00;100233.50;5115122;28;20218;-85
2021/12/14 10:06:52;;;;;;;39.97;23.73;;;;;;;7.68;100.00;100224.28;5117634;28;20195;-86
2021/12/14 10:09:25;;;;;;;43.00;24.60;;;;;;;7.75;100.00;100225.81;5107302;28;20223;-84
2021/12/14 10:12:16;;;;;;;43.77;24.33;;;;;;;7.89;100.00;100227.09;5116636;28;20221;-86
2021/12/14 10:14:45;;;;;;;49.40;23.80;;;;;;;7.96;100.00;100223.31;5114891;28;20191;-85
2021/12/14 10:17:18;;;;;;;44.60;28.23;;;;;;;7.70;100.00;100233.00;5108669;28;20202;-87
2021/12/14 10:19:48;;;;;;;36.90;22.10;;;;;;;7.74;100.00;100232.00;5109344;28;20202;-86
2021/12/14 10:22:23;;;;;;;40.23;24.13;;;;;;;7.87;100.00;100236.84;5115225;28;20194;-85
2021/12/14 10:24:52;;;;;;;37.80;22.33;;;;;;;7.87;100.00;100237.69;5113660;28;20577;-87
2021/12/14 10:27:24;;;;;;;38.53;22.33;;;;;;;7.90;100.00;100234.06;5114074;28;20270;-86
2021/12/14 10:29:54;;;;;;;40.97;22.90;;;;;;;7.89;100.00;100241.13;5117892;28;20269;-86
2021/12/14 10:32:28;;;;;;;37.50;22.57;;;;;;;8.03;100.00;100240.66;5112607;28;20223;-85
2021/12/14 10:35:00;;;;;;;35.00;21.40;;;;;;;8.13;100.00;100223.56;5030065;28;20196;-86
2021/12/14 10:37:39;;;;;;;38.33;22.10;;;;;;;8.11;100.00;100228.06;5030234;28;20212;-84
2021/12/14 10:43:17;;;;;;;36.67;21.03;;;;;;;8.04;100.00;100223.91;5035064;28;20190;-87
2021/12/14 10:45:52;;;;;;;36.47;22.37;;;;;;;8.09;100.00;100226.38;5033547;28;20198;-86
2021/12/14 10:48:30;;;;;;;33.60;20.03;;;;;;;7.94;100.00;100222.53;5029017;28;20208;-86
2021/12/14 10:51:05;;;;;;;37.20;22.43;;;;;;;7.87;100.00;100221.88;4972755;28;20340;-86
2021/12/14 10:53:34;;;;;;;35.97;21.73;;;;;;;7.86;100.00;100220.16;5012026;28;20204;-86
2021/12/14 10:56:13;;;;;;;36.10;21.30;;;;;;;8.06;100.00;100218.56;5027662;28;20285;-87
2021/12/14 10:58:44;;;;;;;34.53;21.60;;;;;;;8.16;100.00;100222.59;5035379;28;20221;-86
2021/12/14 11:01:16;;;;;;;36.33;21.60;;;;;;;8.15;100.00;100213.81;5031314;28;20194;-86
2021/12/14 11:03:52;;;;;;;33.73;20.57;;;;;;;8.24;100.00;100213.47;4975835;28;20206;-87
2021/12/14 11:06:28;;;;;;;32.10;20.80;;;;;;;7.94;100.00;100206.69;4977819;28;20191;-85
2021/12/14 11:09:39;;;;;;;31.53;20.93;;;;;;;8.14;100.00;100206.81;5004868;28;20192;-86
2021/12/14 11:11:53;;;;;;;32.57;21.30;;;;;;;7.88;100.00;100199.00;5053369;28;20217;-87
2021/12/14 11:14:27;;;;;;;33.13;19.20;;;;;;;8.04;100.00;100201.03;5050604;28;20212;-85
2021/12/14 11:19:51;;;;;;;33.40;19.97;;;;;;;8.15;100.00;100194.47;5054100;28;20255;-85
2021/12/14 11:22:23;;;;;;;32.93;19.47;;;;;;;8.13;100.00;100196.31;5090117;28;20282;-86
2021/12/14 11:24:56;;;;;;;33.37;20.47;;;;;;;8.10;100.00;100193.78;5109826;28;20187;-86
2021/12/14 11:27:28;;;;;;;28.40;18.37;;;;;;;8.15;100.00;100195.34;5103036;28;20202;-87
2021/12/14 11:30:18;;;;;;;34.13;20.13;;;;;;;8.22;100.00;100194.19;5113945;28;20199;-87
2021/12/14 11:32:48;;;;;;;31.37;19.33;;;;;;;8.28;100.00;100185.19;5111137;28;20215;-86
2021/12/14 11:35:27;;;;;;;35.23;20.40;;;;;;;8.34;100.00;100195.50;5114696;28;20226;-86
2021/12/14 11:37:58;;;;;;;34.30;19.90;;;;;;;8.37;100.00;100191.91;5120036;28;20213;-86
2021/12/14 11:40:29;;;;;;;29.63;19.60;;;;;;;8.28;100.00;100201.00;5114181;28;20206;-86
2021/12/14 11:43:13;;;;;;;33.93;19.33;;;;;;;8.33;100.00;100189.38;5113282;28;20191;-85
2021/12/14 11:45:46;;;;;;;31.13;17.90;;;;;;;8.33;100.00;100188.50;5015422;28;20252;-86
2021/12/14 11:48:16;;;;;;;27.13;16.90;;;;;;;8.11;100.00;100180.56;5014458;28;20199;-86
2021/12/14 11:50:51;;;;;;;29.03;17.17;;;;;;;8.27;100.00;100186.09;5008374;28;20186;-86
2021/12/14 11:53:23;;;;;;;26.87;16.83;;;;;;;8.33;100.00;100188.50;5014699;28;20191;-86
2021/12/14 11:55:55;;;;;;;27.87;16.97;;;;;;;8.40;100.00;100186.53;5011580;28;20207;-86
2021/12/14 11:58:33;;;;;;;27.27;17.00;;;;;;;8.29;100.00;100179.84;4982896;28;20273;-86
2021/12/14 12:01:09;;;;;;;27.57;16.10;;;;;;;8.28;100.00;100185.19;4982288;28;20250;-85
2021/12/14 12:03:45;;;;;;;26.57;15.57;;;;;;;8.28;100.00;100179.91;5005358;28;20246;-86